sensor_id;sensor_type;location;lat;lon;timestamp;P1;durP1;ratioP1;P2;durP2;ratioP2
16828;SDS011;8531;48.078;11.968;2023-11-25T00:01:40;3.07;;;1.07;;
16828;SDS011;8531;48.078;11.968;2023-11-25T00:04:06;2.70;;;1.27;;
16828;SDS011;8531;48.078;11.968;2023-11-25T00:06:31;2.20;;;1.10;;
16828;SDS011;8531;48.078;11.968;2023-11-25T00:08:57;1.40;;;0.87;;
16828;SDS011;8531;48.078;11.968;2023-11-25T00:11:23;2.00;;;1.00;;
16828;SDS011;8531;48.078;11.968;2023-11-25T00:13:48;1.90;;;0.90;;
16828;SDS011;8531;48.078;11.968;2023-11-25T00:16:14;1.50;;;0.73;;
16828;SDS011;8531;48.078;11.968;2023-11-25T00:18:40;2.53;;;0.90;;
16828;SDS011;8531;48.078;11.968;2023-11-25T00:21:06;1.53;;;0.80;;
16828;SDS011;8531;48.078;11.968;2023-11-25T00:23:32;2.13;;;0.80;;
16828;SDS011;8531;48.078;11.968;2023-11-25T00:25:58;3.03;;;1.13;;
16828;SDS011;8531;48.078;11.968;2023-11-25T00:28:23;1.83;;;0.97;;
16828;SDS011;8531;48.078;11.968;2023-11-25T00:30:49;3.40;;;0.80;;
16828;SDS011;8531;48.078;11.968;2023-11-25T00:33:14;6.07;;;1.63;;
16828;SDS011;8531;48.078;11.968;2023-11-25T00:35:40;3.00;;;1.07;;
16828;SDS011;8531;48.078;11.968;2023-11-25T00:38:06;2.37;;;0.70;;
16828;SDS011;8531;48.078;11.968;2023-11-25T00:40:34;3.87;;;0.93;;
16828;SDS011;8531;48.078;11.968;2023-11-25T00:43:00;2.53;;;0.87;;
16828;SDS011;8531;48.078;11.968;2023-11-25T00:45:25;2.13;;;0.87;;
16828;SDS011;8531;48.078;11.968;2023-11-25T00:47:52;2.17;;;0.80;;
16828;SDS011;8531;48.078;11.968;2023-11-25T00:50:18;4.13;;;1.13;;
16828;SDS011;8531;48.078;11.968;2023-11-25T00:52:44;1.20;;;0.57;;
16828;SDS011;8531;48.078;11.968;2023-11-25T00:55:10;1.70;;;0.63;;
16828;SDS011;8531;48.078;11.968;2023-11-25T00:57:36;1.70;;;0.60;;
16828;SDS011;8531;48.078;11.968;2023-11-25T01:00:02;2.03;;;0.67;;
16828;SDS011;8531;48.078;11.968;2023-11-25T01:02:35;0.87;;;0.47;;
16828;SDS011;8531;48.078;11.968;2023-11-25T01:05:01;2.37;;;0.90;;
16828;SDS011;8531;48.078;11.968;2023-11-25T01:07:29;2.53;;;0.60;;
16828;SDS011;8531;48.078;11.968;2023-11-25T01:09:55;3.67;;;0.77;;
16828;SDS011;8531;48.078;11.968;2023-11-25T01:12:20;3.07;;;0.80;;
16828;SDS011;8531;48.078;11.968;2023-11-25T01:14:46;1.20;;;0.57;;
16828;SDS011;8531;48.078;11.968;2023-11-25T01:17:12;3.30;;;0.57;;
16828;SDS011;8531;48.078;11.968;2023-11-25T01:19:37;1.80;;;0.53;;
16828;SDS011;8531;48.078;11.968;2023-11-25T01:22:03;0.70;;;0.70;;
16828;SDS011;8531;48.078;11.968;2023-11-25T01:24:29;2.47;;;0.53;;
16828;SDS011;8531;48.078;11.968;2023-11-25T01:26:55;2.37;;;0.77;;
16828;SDS011;8531;48.078;11.968;2023-11-25T01:29:20;2.67;;;0.80;;
16828;SDS011;8531;48.078;11.968;2023-11-25T01:31:47;3.33;;;0.80;;
16828;SDS011;8531;48.078;11.968;2023-11-25T01:34:13;2.67;;;0.73;;
16828;SDS011;8531;48.078;11.968;2023-11-25T01:36:39;2.07;;;0.67;;
16828;SDS011;8531;48.078;11.968;2023-11-25T01:39:04;2.70;;;0.53;;
16828;SDS011;8531;48.078;11.968;2023-11-25T01:41:30;1.90;;;0.60;;
16828;SDS011;8531;48.078;11.968;2023-11-25T01:43:56;2.40;;;0.57;;
16828;SDS011;8531;48.078;11.968;2023-11-25T01:46:29;1.30;;;0.60;;
16828;SDS011;8531;48.078;11.968;2023-11-25T01:49:06;1.20;;;0.57;;
16828;SDS011;8531;48.078;11.968;2023-11-25T01:51:34;0.93;;;0.40;;
16828;SDS011;8531;48.078;11.968;2023-11-25T01:54:02;1.00;;;0.50;;
16828;SDS011;8531;48.078;11.968;2023-11-25T01:56:30;0.87;;;0.30;;
16828;SDS011;8531;48.078;11.968;2023-11-25T01:58:56;3.03;;;0.50;;
16828;SDS011;8531;48.078;11.968;2023-11-25T02:01:25;1.10;;;0.37;;
16828;SDS011;8531;48.078;11.968;2023-11-25T02:03:54;0.83;;;0.40;;
16828;SDS011;8531;48.078;11.968;2023-11-25T02:06:23;1.77;;;0.50;;
16828;SDS011;8531;48.078;11.968;2023-11-25T02:08:49;2.63;;;0.57;;
16828;SDS011;8531;48.078;11.968;2023-11-25T02:11:15;1.73;;;0.40;;
16828;SDS011;8531;48.078;11.968;2023-11-25T02:13:41;1.63;;;0.60;;
16828;SDS011;8531;48.078;11.968;2023-11-25T02:16:07;0.53;;;0.30;;
16828;SDS011;8531;48.078;11.968;2023-11-25T02:18:35;2.37;;;0.53;;
16828;SDS011;8531;48.078;11.968;2023-11-25T02:21:02;1.30;;;0.30;;
16828;SDS011;8531;48.078;11.968;2023-11-25T02:23:30;1.83;;;0.30;;
16828;SDS011;8531;48.078;11.968;2023-11-25T02:25:56;0.60;;;0.40;;
16828;SDS011;8531;48.078;11.968;2023-11-25T02:28:22;2.17;;;0.20;;
16828;SDS011;8531;48.078;11.968;2023-11-25T02:30:49;1.10;;;0.30;;
16828;SDS011;8531;48.078;11.968;2023-11-25T02:33:16;0.40;;;0.20;;
16828;SDS011;8531;48.078;11.968;2023-11-25T02:35:42;0.33;;;0.20;;
16828;SDS011;8531;48.078;11.968;2023-11-25T02:38:09;0.50;;;0.30;;
16828;SDS011;8531;48.078;11.968;2023-11-25T02:40:39;0.27;;;0.10;;
16828;SDS011;8531;48.078;11.968;2023-11-25T02:43:08;1.27;;;0.30;;
16828;SDS011;8531;48.078;11.968;2023-11-25T02:45:37;1.47;;;0.40;;
16828;SDS011;8531;48.078;11.968;2023-11-25T02:48:04;0.87;;;0.20;;
16828;SDS011;8531;48.078;11.968;2023-11-25T02:50:31;0.70;;;0.20;;
16828;SDS011;8531;48.078;11.968;2023-11-25T02:53:00;1.07;;;0.23;;
16828;SDS011;8531;48.078;11.968;2023-11-25T02:55:26;1.50;;;0.30;;
16828;SDS011;8531;48.078;11.968;2023-11-25T02:57:51;1.80;;;0.30;;
16828;SDS011;8531;48.078;11.968;2023-11-25T03:00:17;2.80;;;0.93;;
16828;SDS011;8531;48.078;11.968;2023-11-25T03:02:50;1.57;;;0.30;;
16828;SDS011;8531;48.078;11.968;2023-11-25T03:05:25;1.00;;;0.37;;
16828;SDS011;8531;48.078;11.968;2023-11-25T03:07:53;0.73;;;0.20;;
16828;SDS011;8531;48.078;11.968;2023-11-25T03:10:22;1.23;;;0.40;;
16828;SDS011;8531;48.078;11.968;2023-11-25T03:12:51;1.43;;;0.20;;
16828;SDS011;8531;48.078;11.968;2023-11-25T03:15:18;0.37;;;0.17;;
16828;SDS011;8531;48.078;11.968;2023-11-25T03:17:43;1.67;;;0.23;;
16828;SDS011;8531;48.078;11.968;2023-11-25T03:20:09;1.03;;;0.40;;
16828;SDS011;8531;48.078;11.968;2023-11-25T03:22:35;0.90;;;0.20;;
16828;SDS011;8531;48.078;11.968;2023-11-25T03:25:01;1.00;;;0.30;;
16828;SDS011;8531;48.078;11.968;2023-11-25T03:27:27;0.87;;;0.20;;
16828;SDS011;8531;48.078;11.968;2023-11-25T03:29:56;0.33;;;0.10;;
16828;SDS011;8531;48.078;11.968;2023-11-25T03:32:23;1.10;;;0.40;;
16828;SDS011;8531;48.078;11.968;2023-11-25T03:34:51;4.80;;;0.40;;
16828;SDS011;8531;48.078;11.968;2023-11-25T03:37:17;0.77;;;0.20;;
16828;SDS011;8531;48.078;11.968;2023-11-25T03:39:44;1.20;;;0.23;;
16828;SDS011;8531;48.078;11.968;2023-11-25T03:42:09;0.80;;;0.50;;
16828;SDS011;8531;48.078;11.968;2023-11-25T03:44:35;1.83;;;0.67;;
16828;SDS011;8531;48.078;11.968;2023-11-25T03:47:02;1.10;;;0.43;;
16828;SDS011;8531;48.078;11.968;2023-11-25T03:49:28;1.27;;;0.97;;
16828;SDS011;8531;48.078;11.968;2023-11-25T03:51:54;0.80;;;0.20;;
16828;SDS011;8531;48.078;11.968;2023-11-25T03:54:20;3.57;;;0.60;;
16828;SDS011;8531;48.078;11.968;2023-11-25T03:56:46;1.93;;;0.50;;
16828;SDS011;8531;48.078;11.968;2023-11-25T03:59:12;0.43;;;0.20;;
16828;SDS011;8531;48.078;11.968;2023-11-25T04:01:38;1.43;;;0.17;;
16828;SDS011;8531;48.078;11.968;2023-11-25T04:04:06;1.50;;;0.40;;
16828;SDS011;8531;48.078;11.968;2023-11-25T04:06:33;0.67;;;0.30;;
16828;SDS011;8531;48.078;11.968;2023-11-25T04:08:59;0.87;;;0.40;;
16828;SDS011;8531;48.078;11.968;2023-11-25T04:11:25;1.30;;;0.40;;
16828;SDS011;8531;48.078;11.968;2023-11-25T04:13:50;1.13;;;0.53;;
16828;SDS011;8531;48.078;11.968;2023-11-25T04:16:18;1.97;;;0.23;;
16828;SDS011;8531;48.078;11.968;2023-11-25T04:18:44;1.23;;;0.50;;
16828;SDS011;8531;48.078;11.968;2023-11-25T04:21:09;1.07;;;0.50;;
16828;SDS011;8531;48.078;11.968;2023-11-25T04:23:35;1.93;;;0.80;;
16828;SDS011;8531;48.078;11.968;2023-11-25T04:26:00;1.27;;;0.50;;
16828;SDS011;8531;48.078;11.968;2023-11-25T04:28:27;1.10;;;0.30;;
16828;SDS011;8531;48.078;11.968;2023-11-25T04:30:54;1.73;;;0.40;;
16828;SDS011;8531;48.078;11.968;2023-11-25T04:33:20;2.00;;;0.70;;
16828;SDS011;8531;48.078;11.968;2023-11-25T04:35:45;2.10;;;0.63;;
16828;SDS011;8531;48.078;11.968;2023-11-25T04:38:11;0.73;;;0.20;;
16828;SDS011;8531;48.078;11.968;2023-11-25T04:40:37;3.00;;;0.60;;
16828;SDS011;8531;48.078;11.968;2023-11-25T04:43:02;1.27;;;0.37;;
16828;SDS011;8531;48.078;11.968;2023-11-25T04:45:28;2.20;;;0.53;;
16828;SDS011;8531;48.078;11.968;2023-11-25T04:47:54;1.63;;;0.23;;
16828;SDS011;8531;48.078;11.968;2023-11-25T04:50:20;1.40;;;0.60;;
16828;SDS011;8531;48.078;11.968;2023-11-25T04:52:46;1.13;;;0.30;;
16828;SDS011;8531;48.078;11.968;2023-11-25T04:55:11;0.70;;;0.30;;
16828;SDS011;8531;48.078;11.968;2023-11-25T04:57:38;1.03;;;0.40;;
16828;SDS011;8531;48.078;11.968;2023-11-25T05:00:04;1.53;;;0.43;;
16828;SDS011;8531;48.078;11.968;2023-11-25T05:02:34;1.17;;;0.30;;
16828;SDS011;8531;48.078;11.968;2023-11-25T05:05:01;1.10;;;0.30;;
16828;SDS011;8531;48.078;11.968;2023-11-25T05:07:28;0.40;;;0.20;;
16828;SDS011;8531;48.078;11.968;2023-11-25T05:09:54;1.10;;;0.20;;
16828;SDS011;8531;48.078;11.968;2023-11-25T05:12:21;2.33;;;0.50;;
16828;SDS011;8531;48.078;11.968;2023-11-25T05:14:47;2.50;;;0.60;;
16828;SDS011;8531;48.078;11.968;2023-11-25T05:17:13;1.50;;;0.40;;
16828;SDS011;8531;48.078;11.968;2023-11-25T05:19:39;0.93;;;0.30;;
16828;SDS011;8531;48.078;11.968;2023-11-25T05:22:04;0.83;;;0.30;;
16828;SDS011;8531;48.078;11.968;2023-11-25T05:24:30;1.17;;;0.40;;
16828;SDS011;8531;48.078;11.968;2023-11-25T05:26:56;2.37;;;0.50;;
16828;SDS011;8531;48.078;11.968;2023-11-25T05:29:22;1.50;;;0.30;;
16828;SDS011;8531;48.078;11.968;2023-11-25T05:31:48;4.03;;;0.70;;
16828;SDS011;8531;48.078;11.968;2023-11-25T05:34:13;1.57;;;0.30;;
16828;SDS011;8531;48.078;11.968;2023-11-25T05:36:39;4.20;;;0.60;;
16828;SDS011;8531;48.078;11.968;2023-11-25T05:39:05;1.87;;;0.30;;
16828;SDS011;8531;48.078;11.968;2023-11-25T05:41:38;1.53;;;0.30;;
16828;SDS011;8531;48.078;11.968;2023-11-25T05:44:05;1.00;;;0.40;;
16828;SDS011;8531;48.078;11.968;2023-11-25T05:46:35;1.50;;;0.40;;
16828;SDS011;8531;48.078;11.968;2023-11-25T05:49:02;3.87;;;0.90;;
16828;SDS011;8531;48.078;11.968;2023-11-25T05:51:32;0.67;;;0.30;;
16828;SDS011;8531;48.078;11.968;2023-11-25T05:53:58;1.57;;;0.43;;
16828;SDS011;8531;48.078;11.968;2023-11-25T05:56:25;2.90;;;0.70;;
16828;SDS011;8531;48.078;11.968;2023-11-25T05:58:54;1.37;;;0.50;;
16828;SDS011;8531;48.078;11.968;2023-11-25T06:01:20;1.87;;;0.50;;
16828;SDS011;8531;48.078;11.968;2023-11-25T06:03:48;2.60;;;0.60;;
16828;SDS011;8531;48.078;11.968;2023-11-25T06:06:17;1.27;;;0.30;;
16828;SDS011;8531;48.078;11.968;2023-11-25T06:08:49;1.50;;;0.33;;
16828;SDS011;8531;48.078;11.968;2023-11-25T06:11:20;1.37;;;0.40;;
16828;SDS011;8531;48.078;11.968;2023-11-25T06:13:47;2.97;;;0.40;;
16828;SDS011;8531;48.078;11.968;2023-11-25T06:16:13;1.40;;;0.57;;
16828;SDS011;8531;48.078;11.968;2023-11-25T06:18:39;2.70;;;0.33;;
16828;SDS011;8531;48.078;11.968;2023-11-25T06:21:04;0.30;;;0.20;;
16828;SDS011;8531;48.078;11.968;2023-11-25T06:23:31;1.30;;;0.37;;
16828;SDS011;8531;48.078;11.968;2023-11-25T06:25:57;1.17;;;0.40;;
16828;SDS011;8531;48.078;11.968;2023-11-25T06:28:24;2.67;;;0.50;;
16828;SDS011;8531;48.078;11.968;2023-11-25T06:30:50;1.23;;;0.30;;
16828;SDS011;8531;48.078;11.968;2023-11-25T06:33:22;2.37;;;0.67;;
16828;SDS011;8531;48.078;11.968;2023-11-25T06:35:51;2.80;;;0.57;;
16828;SDS011;8531;48.078;11.968;2023-11-25T06:38:22;2.20;;;0.60;;
16828;SDS011;8531;48.078;11.968;2023-11-25T06:40:48;0.43;;;0.20;;
16828;SDS011;8531;48.078;11.968;2023-11-25T06:43:14;2.57;;;0.70;;
16828;SDS011;8531;48.078;11.968;2023-11-25T06:45:41;1.63;;;0.40;;
16828;SDS011;8531;48.078;11.968;2023-11-25T06:48:09;3.73;;;0.70;;
16828;SDS011;8531;48.078;11.968;2023-11-25T06:50:35;2.47;;;0.50;;
16828;SDS011;8531;48.078;11.968;2023-11-25T06:53:02;3.13;;;1.17;;
16828;SDS011;8531;48.078;11.968;2023-11-25T06:55:28;1.60;;;0.40;;
16828;SDS011;8531;48.078;11.968;2023-11-25T06:57:54;4.13;;;0.70;;
16828;SDS011;8531;48.078;11.968;2023-11-25T07:00:20;2.40;;;1.50;;
16828;SDS011;8531;48.078;11.968;2023-11-25T07:02:47;4.13;;;0.70;;
16828;SDS011;8531;48.078;11.968;2023-11-25T07:05:13;1.90;;;0.40;;
16828;SDS011;8531;48.078;11.968;2023-11-25T07:07:39;3.97;;;0.70;;
16828;SDS011;8531;48.078;11.968;2023-11-25T07:10:05;0.73;;;0.40;;
16828;SDS011;8531;48.078;11.968;2023-11-25T07:12:35;1.33;;;0.60;;
16828;SDS011;8531;48.078;11.968;2023-11-25T07:15:02;1.03;;;0.50;;
16828;SDS011;8531;48.078;11.968;2023-11-25T07:17:29;3.80;;;0.83;;
16828;SDS011;8531;48.078;11.968;2023-11-25T07:19:55;1.30;;;0.40;;
16828;SDS011;8531;48.078;11.968;2023-11-25T07:22:20;1.20;;;0.50;;
16828;SDS011;8531;48.078;11.968;2023-11-25T07:24:46;1.27;;;0.40;;
16828;SDS011;8531;48.078;11.968;2023-11-25T07:27:12;1.93;;;0.43;;
16828;SDS011;8531;48.078;11.968;2023-11-25T07:29:43;1.00;;;0.40;;
16828;SDS011;8531;48.078;11.968;2023-11-25T07:32:12;1.20;;;0.67;;
16828;SDS011;8531;48.078;11.968;2023-11-25T07:34:38;3.13;;;1.07;;
16828;SDS011;8531;48.078;11.968;2023-11-25T07:37:04;2.13;;;0.83;;
16828;SDS011;8531;48.078;11.968;2023-11-25T07:39:31;1.37;;;0.50;;
16828;SDS011;8531;48.078;11.968;2023-11-25T07:41:58;2.90;;;0.60;;
16828;SDS011;8531;48.078;11.968;2023-11-25T07:44:26;2.73;;;0.70;;
16828;SDS011;8531;48.078;11.968;2023-11-25T07:46:52;1.33;;;0.60;;
16828;SDS011;8531;48.078;11.968;2023-11-25T07:49:18;2.20;;;0.70;;
16828;SDS011;8531;48.078;11.968;2023-11-25T07:51:45;1.40;;;0.50;;
16828;SDS011;8531;48.078;11.968;2023-11-25T07:54:13;1.77;;;0.50;;
16828;SDS011;8531;48.078;11.968;2023-11-25T07:56:39;3.57;;;0.60;;
16828;SDS011;8531;48.078;11.968;2023-11-25T07:59:05;1.30;;;0.70;;
16828;SDS011;8531;48.078;11.968;2023-11-25T08:01:31;6.10;;;0.87;;
16828;SDS011;8531;48.078;11.968;2023-11-25T08:03:57;1.87;;;0.40;;
16828;SDS011;8531;48.078;11.968;2023-11-25T08:06:22;2.13;;;0.87;;
16828;SDS011;8531;48.078;11.968;2023-11-25T08:08:51;1.07;;;0.50;;
16828;SDS011;8531;48.078;11.968;2023-11-25T08:11:23;3.00;;;1.10;;
16828;SDS011;8531;48.078;11.968;2023-11-25T08:13:49;1.80;;;0.80;;
16828;SDS011;8531;48.078;11.968;2023-11-25T08:16:15;1.97;;;0.80;;
16828;SDS011;8531;48.078;11.968;2023-11-25T08:18:43;1.83;;;0.67;;
16828;SDS011;8531;48.078;11.968;2023-11-25T08:21:10;3.13;;;1.00;;
16828;SDS011;8531;48.078;11.968;2023-11-25T08:23:36;2.37;;;0.80;;
16828;SDS011;8531;48.078;11.968;2023-11-25T08:26:02;3.23;;;0.60;;
16828;SDS011;8531;48.078;11.968;2023-11-25T08:28:27;3.40;;;1.20;;
16828;SDS011;8531;48.078;11.968;2023-11-25T08:30:53;3.40;;;1.07;;
16828;SDS011;8531;48.078;11.968;2023-11-25T08:33:19;3.47;;;0.90;;
16828;SDS011;8531;48.078;11.968;2023-11-25T08:35:45;5.50;;;0.80;;
16828;SDS011;8531;48.078;11.968;2023-11-25T08:38:11;1.53;;;0.73;;
16828;SDS011;8531;48.078;11.968;2023-11-25T08:40:36;2.10;;;0.43;;
16828;SDS011;8531;48.078;11.968;2023-11-25T08:43:05;1.53;;;0.93;;
16828;SDS011;8531;48.078;11.968;2023-11-25T08:45:34;4.10;;;0.50;;
16828;SDS011;8531;48.078;11.968;2023-11-25T08:48:02;1.17;;;0.90;;
16828;SDS011;8531;48.078;11.968;2023-11-25T08:50:28;2.23;;;0.83;;
16828;SDS011;8531;48.078;11.968;2023-11-25T08:52:54;1.07;;;0.77;;
16828;SDS011;8531;48.078;11.968;2023-11-25T08:55:20;3.63;;;0.90;;
16828;SDS011;8531;48.078;11.968;2023-11-25T08:57:47;3.37;;;0.80;;
16828;SDS011;8531;48.078;11.968;2023-11-25T09:00:15;1.97;;;0.90;;
16828;SDS011;8531;48.078;11.968;2023-11-25T09:02:45;3.07;;;0.57;;
16828;SDS011;8531;48.078;11.968;2023-11-25T09:05:15;1.70;;;0.83;;
16828;SDS011;8531;48.078;11.968;2023-11-25T09:07:47;1.57;;;0.77;;
16828;SDS011;8531;48.078;11.968;2023-11-25T09:10:20;3.30;;;0.90;;
16828;SDS011;8531;48.078;11.968;2023-11-25T09:12:47;4.27;;;0.90;;
16828;SDS011;8531;48.078;11.968;2023-11-25T09:15:16;2.07;;;0.60;;
16828;SDS011;8531;48.078;11.968;2023-11-25T09:17:42;2.97;;;0.87;;
16828;SDS011;8531;48.078;11.968;2023-11-25T09:20:08;2.67;;;0.90;;
16828;SDS011;8531;48.078;11.968;2023-11-25T09:22:38;1.47;;;0.60;;
16828;SDS011;8531;48.078;11.968;2023-11-25T09:25:04;2.27;;;0.90;;
16828;SDS011;8531;48.078;11.968;2023-11-25T09:27:30;2.50;;;1.07;;
16828;SDS011;8531;48.078;11.968;2023-11-25T09:29:56;1.70;;;0.80;;
16828;SDS011;8531;48.078;11.968;2023-11-25T09:32:21;1.93;;;0.90;;
16828;SDS011;8531;48.078;11.968;2023-11-25T09:34:49;5.07;;;1.20;;
16828;SDS011;8531;48.078;11.968;2023-11-25T09:37:15;2.43;;;1.13;;
16828;SDS011;8531;48.078;11.968;2023-11-25T09:39:41;4.70;;;1.30;;
16828;SDS011;8531;48.078;11.968;2023-11-25T09:42:07;2.97;;;1.10;;
16828;SDS011;8531;48.078;11.968;2023-11-25T09:44:33;4.33;;;1.63;;
16828;SDS011;8531;48.078;11.968;2023-11-25T09:47:00;4.70;;;1.70;;
16828;SDS011;8531;48.078;11.968;2023-11-25T09:49:26;1.87;;;0.80;;
16828;SDS011;8531;48.078;11.968;2023-11-25T09:51:53;2.33;;;0.70;;
16828;SDS011;8531;48.078;11.968;2023-11-25T09:54:22;2.10;;;0.77;;
16828;SDS011;8531;48.078;11.968;2023-11-25T09:56:48;2.47;;;0.80;;
16828;SDS011;8531;48.078;11.968;2023-11-25T09:59:17;1.97;;;0.67;;
16828;SDS011;8531;48.078;11.968;2023-11-25T10:01:43;4.93;;;1.13;;
16828;SDS011;8531;48.078;11.968;2023-11-25T10:04:11;3.70;;;1.27;;
16828;SDS011;8531;48.078;11.968;2023-11-25T10:06:38;3.63;;;1.30;;
16828;SDS011;8531;48.078;11.968;2023-11-25T10:09:04;3.57;;;1.60;;
16828;SDS011;8531;48.078;11.968;2023-11-25T10:11:34;3.50;;;1.47;;
16828;SDS011;8531;48.078;11.968;2023-11-25T10:14:01;5.40;;;1.00;;
16828;SDS011;8531;48.078;11.968;2023-11-25T10:16:31;3.50;;;1.40;;
16828;SDS011;8531;48.078;11.968;2023-11-25T10:18:56;3.20;;;1.27;;
16828;SDS011;8531;48.078;11.968;2023-11-25T10:21:22;2.37;;;0.80;;
16828;SDS011;8531;48.078;11.968;2023-11-25T10:23:48;5.07;;;1.30;;
16828;SDS011;8531;48.078;11.968;2023-11-25T10:26:19;2.03;;;1.00;;
16828;SDS011;8531;48.078;11.968;2023-11-25T10:28:46;1.60;;;0.87;;
16828;SDS011;8531;48.078;11.968;2023-11-25T10:31:12;1.90;;;1.00;;
16828;SDS011;8531;48.078;11.968;2023-11-25T10:33:44;5.27;;;1.10;;
16828;SDS011;8531;48.078;11.968;2023-11-25T10:36:09;5.20;;;1.13;;
16828;SDS011;8531;48.078;11.968;2023-11-25T10:38:38;2.30;;;0.93;;
16828;SDS011;8531;48.078;11.968;2023-11-25T10:41:05;3.23;;;0.83;;
16828;SDS011;8531;48.078;11.968;2023-11-25T10:43:31;4.73;;;0.93;;
16828;SDS011;8531;48.078;11.968;2023-11-25T10:46:01;4.43;;;1.33;;
16828;SDS011;8531;48.078;11.968;2023-11-25T10:48:28;6.70;;;1.10;;
16828;SDS011;8531;48.078;11.968;2023-11-25T10:50:54;2.80;;;1.43;;
16828;SDS011;8531;48.078;11.968;2023-11-25T10:53:26;4.60;;;1.20;;
16828;SDS011;8531;48.078;11.968;2023-11-25T10:55:57;6.10;;;1.60;;
16828;SDS011;8531;48.078;11.968;2023-11-25T10:58:24;4.60;;;1.43;;
16828;SDS011;8531;48.078;11.968;2023-11-25T11:00:51;3.87;;;1.30;;
16828;SDS011;8531;48.078;11.968;2023-11-25T11:03:20;5.03;;;1.33;;
16828;SDS011;8531;48.078;11.968;2023-11-25T11:05:55;4.27;;;1.70;;
16828;SDS011;8531;48.078;11.968;2023-11-25T11:08:34;6.87;;;1.37;;
16828;SDS011;8531;48.078;11.968;2023-11-25T11:11:07;4.00;;;0.73;;
16828;SDS011;8531;48.078;11.968;2023-11-25T11:13:41;3.07;;;0.73;;
16828;SDS011;8531;48.078;11.968;2023-11-25T11:16:18;3.80;;;1.10;;
16828;SDS011;8531;48.078;11.968;2023-11-25T11:18:51;3.90;;;1.27;;
16828;SDS011;8531;48.078;11.968;2023-11-25T11:21:19;2.60;;;0.70;;
16828;SDS011;8531;48.078;11.968;2023-11-25T11:23:50;2.10;;;0.90;;
16828;SDS011;8531;48.078;11.968;2023-11-25T11:34:29;5.07;;;1.53;;
16828;SDS011;8531;48.078;11.968;2023-11-25T11:36:57;6.90;;;1.57;;
16828;SDS011;8531;48.078;11.968;2023-11-25T11:47:52;2.37;;;1.00;;
16828;SDS011;8531;48.078;11.968;2023-11-25T11:50:22;5.03;;;1.40;;
16828;SDS011;8531;48.078;11.968;2023-11-25T11:58:15;6.87;;;1.07;;
16828;SDS011;8531;48.078;11.968;2023-11-25T12:03:13;5.50;;;1.10;;
16828;SDS011;8531;48.078;11.968;2023-11-25T12:05:40;2.87;;;1.17;;
16828;SDS011;8531;48.078;11.968;2023-11-25T12:08:05;2.73;;;1.07;;
16828;SDS011;8531;48.078;11.968;2023-11-25T12:10:32;4.37;;;1.53;;
16828;SDS011;8531;48.078;11.968;2023-11-25T12:12:58;3.70;;;1.30;;
16828;SDS011;8531;48.078;11.968;2023-11-25T12:15:23;2.53;;;1.20;;
16828;SDS011;8531;48.078;11.968;2023-11-25T12:17:50;3.70;;;1.20;;
16828;SDS011;8531;48.078;11.968;2023-11-25T12:20:18;1.93;;;0.90;;
16828;SDS011;8531;48.078;11.968;2023-11-25T12:22:45;3.60;;;1.50;;
16828;SDS011;8531;48.078;11.968;2023-11-25T12:25:11;2.37;;;1.20;;
16828;SDS011;8531;48.078;11.968;2023-11-25T12:27:47;4.80;;;1.40;;
16828;SDS011;8531;48.078;11.968;2023-11-25T12:30:18;6.43;;;1.63;;
16828;SDS011;8531;48.078;11.968;2023-11-25T12:32:44;4.13;;;1.60;;
16828;SDS011;8531;48.078;11.968;2023-11-25T12:35:10;2.00;;;1.00;;
16828;SDS011;8531;48.078;11.968;2023-11-25T12:37:40;4.33;;;1.20;;
16828;SDS011;8531;48.078;11.968;2023-11-25T12:40:19;5.93;;;1.10;;
16828;SDS011;8531;48.078;11.968;2023-11-25T12:42:48;3.70;;;0.97;;
16828;SDS011;8531;48.078;11.968;2023-11-25T12:47:53;5.70;;;1.40;;
16828;SDS011;8531;48.078;11.968;2023-11-25T12:50:19;3.97;;;1.20;;
16828;SDS011;8531;48.078;11.968;2023-11-25T12:52:47;4.33;;;1.47;;
16828;SDS011;8531;48.078;11.968;2023-11-25T12:55:35;2.60;;;1.10;;
16828;SDS011;8531;48.078;11.968;2023-11-25T12:58:06;4.67;;;0.80;;
16828;SDS011;8531;48.078;11.968;2023-11-25T13:00:32;5.13;;;1.37;;
16828;SDS011;8531;48.078;11.968;2023-11-25T13:02:59;3.90;;;1.40;;
16828;SDS011;8531;48.078;11.968;2023-11-25T13:05:25;8.20;;;1.23;;
16828;SDS011;8531;48.078;11.968;2023-11-25T13:07:51;6.13;;;1.53;;
16828;SDS011;8531;48.078;11.968;2023-11-25T13:10:17;4.23;;;1.30;;
16828;SDS011;8531;48.078;11.968;2023-11-25T13:12:42;3.07;;;1.17;;
16828;SDS011;8531;48.078;11.968;2023-11-25T13:15:08;9.87;;;1.63;;
16828;SDS011;8531;48.078;11.968;2023-11-25T13:17:34;6.80;;;1.03;;
16828;SDS011;8531;48.078;11.968;2023-11-25T13:20:01;4.07;;;1.00;;
16828;SDS011;8531;48.078;11.968;2023-11-25T13:22:28;3.37;;;1.00;;
16828;SDS011;8531;48.078;11.968;2023-11-25T13:24:54;3.83;;;0.97;;
16828;SDS011;8531;48.078;11.968;2023-11-25T13:27:20;2.83;;;0.87;;
16828;SDS011;8531;48.078;11.968;2023-11-25T13:29:47;3.10;;;1.20;;
16828;SDS011;8531;48.078;11.968;2023-11-25T13:32:16;2.43;;;1.10;;
16828;SDS011;8531;48.078;11.968;2023-11-25T13:34:41;3.77;;;1.13;;
16828;SDS011;8531;48.078;11.968;2023-11-25T13:37:07;3.17;;;0.87;;
16828;SDS011;8531;48.078;11.968;2023-11-25T13:39:33;1.70;;;0.83;;
16828;SDS011;8531;48.078;11.968;2023-11-25T13:41:58;1.80;;;1.10;;
16828;SDS011;8531;48.078;11.968;2023-11-25T13:44:24;5.67;;;1.20;;
16828;SDS011;8531;48.078;11.968;2023-11-25T13:46:50;5.60;;;1.20;;
16828;SDS011;8531;48.078;11.968;2023-11-25T13:49:15;4.57;;;1.40;;
16828;SDS011;8531;48.078;11.968;2023-11-25T13:51:41;3.43;;;1.40;;
16828;SDS011;8531;48.078;11.968;2023-11-25T13:54:07;4.60;;;0.97;;
16828;SDS011;8531;48.078;11.968;2023-11-25T13:56:34;3.77;;;1.60;;
16828;SDS011;8531;48.078;11.968;2023-11-25T13:59:00;4.97;;;2.33;;
16828;SDS011;8531;48.078;11.968;2023-11-25T14:01:27;4.90;;;1.83;;
16828;SDS011;8531;48.078;11.968;2023-11-25T14:03:53;4.13;;;1.77;;
16828;SDS011;8531;48.078;11.968;2023-11-25T14:06:21;5.57;;;1.77;;
16828;SDS011;8531;48.078;11.968;2023-11-25T14:08:53;5.77;;;1.50;;
16828;SDS011;8531;48.078;11.968;2023-11-25T14:11:19;7.17;;;3.23;;
16828;SDS011;8531;48.078;11.968;2023-11-25T14:13:48;3.20;;;1.30;;
16828;SDS011;8531;48.078;11.968;2023-11-25T14:16:16;5.10;;;1.30;;
16828;SDS011;8531;48.078;11.968;2023-11-25T14:18:42;4.97;;;2.00;;
16828;SDS011;8531;48.078;11.968;2023-11-25T14:21:08;5.13;;;1.87;;
16828;SDS011;8531;48.078;11.968;2023-11-25T14:23:34;1.90;;;1.10;;
16828;SDS011;8531;48.078;11.968;2023-11-25T14:26:00;5.47;;;1.13;;
16828;SDS011;8531;48.078;11.968;2023-11-25T14:28:26;3.93;;;1.30;;
16828;SDS011;8531;48.078;11.968;2023-11-25T14:30:52;1.40;;;0.80;;
16828;SDS011;8531;48.078;11.968;2023-11-25T14:33:18;4.03;;;0.93;;
16828;SDS011;8531;48.078;11.968;2023-11-25T14:35:44;2.43;;;1.07;;
16828;SDS011;8531;48.078;11.968;2023-11-25T14:38:10;2.70;;;1.23;;
16828;SDS011;8531;48.078;11.968;2023-11-25T14:40:36;2.43;;;1.20;;
16828;SDS011;8531;48.078;11.968;2023-11-25T14:43:04;2.77;;;1.07;;
16828;SDS011;8531;48.078;11.968;2023-11-25T14:45:34;2.80;;;1.10;;
16828;SDS011;8531;48.078;11.968;2023-11-25T14:48:00;2.17;;;1.30;;
16828;SDS011;8531;48.078;11.968;2023-11-25T14:50:25;4.70;;;1.20;;
16828;SDS011;8531;48.078;11.968;2023-11-25T14:52:51;3.63;;;1.27;;
16828;SDS011;8531;48.078;11.968;2023-11-25T14:55:17;3.70;;;1.33;;
16828;SDS011;8531;48.078;11.968;2023-11-25T14:57:43;3.53;;;1.10;;
16828;SDS011;8531;48.078;11.968;2023-11-25T15:00:08;2.83;;;1.10;;
16828;SDS011;8531;48.078;11.968;2023-11-25T15:02:37;8.90;;;1.60;;
16828;SDS011;8531;48.078;11.968;2023-11-25T15:05:04;2.43;;;0.90;;
16828;SDS011;8531;48.078;11.968;2023-11-25T15:07:30;2.67;;;0.90;;
16828;SDS011;8531;48.078;11.968;2023-11-25T15:09:56;1.90;;;1.00;;
16828;SDS011;8531;48.078;11.968;2023-11-25T15:12:22;1.60;;;1.10;;
16828;SDS011;8531;48.078;11.968;2023-11-25T15:14:47;3.57;;;1.33;;